sensor_id;sensor_type;location;lat;lon;timestamp;temperature;humidity
59303;DHT22;45074;52.764;6.896;2023-07-13T00:01:29;16.80;99.90
59303;DHT22;45074;52.764;6.896;2023-07-13T00:03:56;16.50;99.90
59303;DHT22;45074;52.764;6.896;2023-07-13T00:06:23;15.80;99.90
59303;DHT22;45074;52.764;6.896;2023-07-13T00:08:49;16.70;99.90
59303;DHT22;45074;52.764;6.896;2023-07-13T00:11:16;17.00;99.90
59303;DHT22;45074;52.764;6.896;2023-07-13T00:13:42;16.80;99.90
59303;DHT22;45074;52.764;6.896;2023-07-13T00:16:09;16.50;99.90
59303;DHT22;45074;52.764;6.896;2023-07-13T00:18:35;16.20;99.90
59303;DHT22;45074;52.764;6.896;2023-07-13T00:23:39;16.60;99.90
59303;DHT22;45074;52.764;6.896;2023-07-13T00:26:08;14.60;99.90
59303;DHT22;45074;52.764;6.896;2023-07-13T00:28:34;16.30;99.90
59303;DHT22;45074;52.764;6.896;2023-07-13T00:31:01;15.70;99.90
59303;DHT22;45074;52.764;6.896;2023-07-13T00:33:29;15.00;99.90
59303;DHT22;45074;52.764;6.896;2023-07-13T00:35:56;16.00;99.90
59303;DHT22;45074;52.764;6.896;2023-07-13T00:38:22;17.90;99.90
59303;DHT22;45074;52.764;6.896;2023-07-13T00:40:48;16.60;99.90
59303;DHT22;45074;52.764;6.896;2023-07-13T00:43:16;16.00;99.90
59303;DHT22;45074;52.764;6.896;2023-07-13T00:48:09;16.30;99.90
59303;DHT22;45074;52.764;6.896;2023-07-13T00:50:35;16.80;99.90
59303;DHT22;45074;52.764;6.896;2023-07-13T00:53:01;15.90;99.90
59303;DHT22;45074;52.764;6.896;2023-07-13T00:55:27;16.30;99.90
59303;DHT22;45074;52.764;6.896;2023-07-13T00:57:53;17.30;99.90
59303;DHT22;45074;52.764;6.896;2023-07-13T01:00:20;15.90;99.90
59303;DHT22;45074;52.764;6.896;2023-07-13T01:02:48;16.00;99.90
59303;DHT22;45074;52.764;6.896;2023-07-13T01:05:16;16.30;99.90
59303;DHT22;45074;52.764;6.896;2023-07-13T01:07:44;16.10;99.90
59303;DHT22;45074;52.764;6.896;2023-07-13T01:10:11;16.00;99.90
59303;DHT22;45074;52.764;6.896;2023-07-13T01:12:37;15.70;99.90
59303;DHT22;45074;52.764;6.896;2023-07-13T01:15:04;16.10;99.90
59303;DHT22;45074;52.764;6.896;2023-07-13T01:17:34;17.50;99.90
59303;DHT22;45074;52.764;6.896;2023-07-13T01:20:00;15.50;99.90
59303;DHT22;45074;52.764;6.896;2023-07-13T01:22:26;15.50;99.90
59303;DHT22;45074;52.764;6.896;2023-07-13T01:24:53;15.70;99.90
59303;DHT22;45074;52.764;6.896;2023-07-13T01:27:26;16.10;99.90
59303;DHT22;45074;52.764;6.896;2023-07-13T01:29:52;16.70;99.90
59303;DHT22;45074;52.764;6.896;2023-07-13T01:32:21;16.70;99.90
59303;DHT22;45074;52.764;6.896;2023-07-13T01:34:53;16.30;99.90
59303;DHT22;45074;52.764;6.896;2023-07-13T01:37:23;16.10;99.90
59303;DHT22;45074;52.764;6.896;2023-07-13T01:39:48;16.00;99.90
59303;DHT22;45074;52.764;6.896;2023-07-13T01:42:14;15.80;99.90
59303;DHT22;45074;52.764;6.896;2023-07-13T01:44:40;16.20;99.90
59303;DHT22;45074;52.764;6.896;2023-07-13T01:47:05;16.10;99.90
59303;DHT22;45074;52.764;6.896;2023-07-13T01:49:31;16.10;99.90
59303;DHT22;45074;52.764;6.896;2023-07-13T01:51:57;16.30;99.90
59303;DHT22;45074;52.764;6.896;2023-07-13T01:54:23;16.10;99.90
59303;DHT22;45074;52.764;6.896;2023-07-13T01:56:48;15.60;99.90
59303;DHT22;45074;52.764;6.896;2023-07-13T01:59:14;16.30;99.90
59303;DHT22;45074;52.764;6.896;2023-07-13T02:01:40;16.30;99.90
59303;DHT22;45074;52.764;6.896;2023-07-13T02:04:05;16.30;99.90
59303;DHT22;45074;52.764;6.896;2023-07-13T02:06:31;14.70;99.90
59303;DHT22;45074;52.764;6.896;2023-07-13T02:08:57;16.20;99.90
59303;DHT22;45074;52.764;6.896;2023-07-13T02:11:23;16.50;99.90
59303;DHT22;45074;52.764;6.896;2023-07-13T02:13:50;17.70;99.90
59303;DHT22;45074;52.764;6.896;2023-07-13T02:16:16;15.00;99.90
59303;DHT22;45074;52.764;6.896;2023-07-13T02:18:42;17.40;99.90
59303;DHT22;45074;52.764;6.896;2023-07-13T02:21:07;15.00;99.90
59303;DHT22;45074;52.764;6.896;2023-07-13T02:23:33;15.90;99.90
59303;DHT22;45074;52.764;6.896;2023-07-13T02:26:00;16.50;99.90
59303;DHT22;45074;52.764;6.896;2023-07-13T02:28:28;15.80;99.90
59303;DHT22;45074;52.764;6.896;2023-07-13T02:30:54;15.80;99.90
59303;DHT22;45074;52.764;6.896;2023-07-13T02:33:19;17.40;99.90
59303;DHT22;45074;52.764;6.896;2023-07-13T02:35:45;17.80;99.90
59303;DHT22;45074;52.764;6.896;2023-07-13T02:38:10;17.70;99.90
59303;DHT22;45074;52.764;6.896;2023-07-13T02:40:36;16.60;99.90
59303;DHT22;45074;52.764;6.896;2023-07-13T02:43:03;16.60;99.90
59303;DHT22;45074;52.764;6.896;2023-07-13T02:45:28;15.80;99.90
59303;DHT22;45074;52.764;6.896;2023-07-13T02:47:54;16.20;99.90
59303;DHT22;45074;52.764;6.896;2023-07-13T02:50:20;15.60;99.90
59303;DHT22;45074;52.764;6.896;2023-07-13T02:52:46;16.30;99.90
59303;DHT22;45074;52.764;6.896;2023-07-13T02:55:11;16.10;99.90
59303;DHT22;45074;52.764;6.896;2023-07-13T03:00:03;16.70;99.90
59303;DHT22;45074;52.764;6.896;2023-07-13T03:02:33;16.40;99.90
59303;DHT22;45074;52.764;6.896;2023-07-13T03:04:59;16.30;99.90
59303;DHT22;45074;52.764;6.896;2023-07-13T03:07:25;16.10;99.90
59303;DHT22;45074;52.764;6.896;2023-07-13T03:09:55;16.80;99.90
59303;DHT22;45074;52.764;6.896;2023-07-13T03:12:21;17.00;99.90
59303;DHT22;45074;52.764;6.896;2023-07-13T03:14:47;16.50;99.90
59303;DHT22;45074;52.764;6.896;2023-07-13T03:17:13;15.30;99.90
59303;DHT22;45074;52.764;6.896;2023-07-13T03:19:38;15.90;99.90
59303;DHT22;45074;52.764;6.896;2023-07-13T03:22:04;17.70;99.90
59303;DHT22;45074;52.764;6.896;2023-07-13T03:24:31;16.00;99.90
59303;DHT22;45074;52.764;6.896;2023-07-13T03:26:57;14.20;99.90
59303;DHT22;45074;52.764;6.896;2023-07-13T03:29:23;16.00;99.90
59303;DHT22;45074;52.764;6.896;2023-07-13T03:31:48;15.80;99.90
59303;DHT22;45074;52.764;6.896;2023-07-13T03:34:14;16.00;99.90
59303;DHT22;45074;52.764;6.896;2023-07-13T03:36:40;16.30;99.90
59303;DHT22;45074;52.764;6.896;2023-07-13T03:39:05;16.60;99.90
59303;DHT22;45074;52.764;6.896;2023-07-13T03:41:33;16.00;99.90
59303;DHT22;45074;52.764;6.896;2023-07-13T03:43:59;16.00;99.90
59303;DHT22;45074;52.764;6.896;2023-07-13T03:46:25;16.90;99.90
59303;DHT22;45074;52.764;6.896;2023-07-13T03:48:51;14.20;99.90
59303;DHT22;45074;52.764;6.896;2023-07-13T03:51:17;15.90;99.90
59303;DHT22;45074;52.764;6.896;2023-07-13T03:53:44;16.50;99.90
59303;DHT22;45074;52.764;6.896;2023-07-13T03:56:10;14.20;99.90
59303;DHT22;45074;52.764;6.896;2023-07-13T03:58:38;16.10;99.90
59303;DHT22;45074;52.764;6.896;2023-07-13T04:01:05;15.90;99.90
59303;DHT22;45074;52.764;6.896;2023-07-13T04:03:32;17.00;99.90
59303;DHT22;45074;52.764;6.896;2023-07-13T04:06:03;16.30;99.90
59303;DHT22;45074;52.764;6.896;2023-07-13T04:08:30;15.90;99.90
59303;DHT22;45074;52.764;6.896;2023-07-13T04:10:56;16.40;99.90
59303;DHT22;45074;52.764;6.896;2023-07-13T04:13:22;16.00;99.90
59303;DHT22;45074;52.764;6.896;2023-07-13T04:15:47;15.80;99.90
59303;DHT22;45074;52.764;6.896;2023-07-13T04:18:13;15.80;99.90
59303;DHT22;45074;52.764;6.896;2023-07-13T04:20:39;15.80;99.90
59303;DHT22;45074;52.764;6.896;2023-07-13T04:23:04;16.90;99.90
59303;DHT22;45074;52.764;6.896;2023-07-13T04:25:30;16.80;99.90
59303;DHT22;45074;52.764;6.896;2023-07-13T04:27:56;14.90;99.90
59303;DHT22;45074;52.764;6.896;2023-07-13T04:30:22;15.90;99.90
59303;DHT22;45074;52.764;6.896;2023-07-13T04:32:51;15.80;99.90
59303;DHT22;45074;52.764;6.896;2023-07-13T04:35:19;17.50;99.90
59303;DHT22;45074;52.764;6.896;2023-07-13T04:37:47;16.40;99.90
59303;DHT22;45074;52.764;6.896;2023-07-13T04:42:40;15.80;99.90
59303;DHT22;45074;52.764;6.896;2023-07-13T04:45:07;15.20;99.90
59303;DHT22;45074;52.764;6.896;2023-07-13T04:47:33;15.80;99.90
59303;DHT22;45074;52.764;6.896;2023-07-13T04:49:58;15.80;99.90
59303;DHT22;45074;52.764;6.896;2023-07-13T04:52:24;15.10;99.90
59303;DHT22;45074;52.764;6.896;2023-07-13T04:54:50;15.80;99.90
59303;DHT22;45074;52.764;6.896;2023-07-13T04:57:15;15.70;99.90
59303;DHT22;45074;52.764;6.896;2023-07-13T04:59:41;15.70;99.90
59303;DHT22;45074;52.764;6.896;2023-07-13T05:02:07;15.70;99.90
59303;DHT22;45074;52.764;6.896;2023-07-13T05:04:32;13.80;99.90
59303;DHT22;45074;52.764;6.896;2023-07-13T05:06:59;16.10;99.90
59303;DHT22;45074;52.764;6.896;2023-07-13T05:09:25;15.20;99.90
59303;DHT22;45074;52.764;6.896;2023-07-13T05:11:51;15.70;99.90
59303;DHT22;45074;52.764;6.896;2023-07-13T05:14:16;14.60;99.90
59303;DHT22;45074;52.764;6.896;2023-07-13T05:16:42;15.80;99.90
59303;DHT22;45074;52.764;6.896;2023-07-13T05:19:08;16.70;99.90
59303;DHT22;45074;52.764;6.896;2023-07-13T05:21:34;15.80;99.90
59303;DHT22;45074;52.764;6.896;2023-07-13T05:24:00;15.30;99.90
59303;DHT22;45074;52.764;6.896;2023-07-13T05:26:25;16.00;99.90
59303;DHT22;45074;52.764;6.896;2023-07-13T05:28:51;14.30;99.90
59303;DHT22;45074;52.764;6.896;2023-07-13T05:31:17;16.00;99.90
59303;DHT22;45074;52.764;6.896;2023-07-13T05:33:42;16.10;99.90
59303;DHT22;45074;52.764;6.896;2023-07-13T05:36:08;16.20;99.90
59303;DHT22;45074;52.764;6.896;2023-07-13T05:38:33;16.20;99.90
59303;DHT22;45074;52.764;6.896;2023-07-13T05:43:26;16.50;99.90
59303;DHT22;45074;52.764;6.896;2023-07-13T05:45:53;16.50;99.90
59303;DHT22;45074;52.764;6.896;2023-07-13T05:50:46;16.80;99.90
59303;DHT22;45074;52.764;6.896;2023-07-13T05:53:12;16.80;99.90
59303;DHT22;45074;52.764;6.896;2023-07-13T05:55:44;18.30;99.90
59303;DHT22;45074;52.764;6.896;2023-07-13T05:58:13;17.90;99.90
59303;DHT22;45074;52.764;6.896;2023-07-13T06:00:39;16.70;99.90
59303;DHT22;45074;52.764;6.896;2023-07-13T06:03:06;16.90;99.90
59303;DHT22;45074;52.764;6.896;2023-07-13T06:05:32;17.10;99.90
59303;DHT22;45074;52.764;6.896;2023-07-13T06:07:59;17.20;99.90
59303;DHT22;45074;52.764;6.896;2023-07-13T06:10:25;17.60;99.90
59303;DHT22;45074;52.764;6.896;2023-07-13T06:12:51;17.80;99.90
59303;DHT22;45074;52.764;6.896;2023-07-13T06:15:16;17.60;99.90
59303;DHT22;45074;52.764;6.896;2023-07-13T06:20:09;17.60;99.90
59303;DHT22;45074;52.764;6.896;2023-07-13T06:22:35;17.80;99.90
59303;DHT22;45074;52.764;6.896;2023-07-13T06:25:00;16.30;99.90
59303;DHT22;45074;52.764;6.896;2023-07-13T06:27:26;19.10;99.90
59303;DHT22;45074;52.764;6.896;2023-07-13T06:29:51;17.90;99.90
59303;DHT22;45074;52.764;6.896;2023-07-13T06:32:17;18.00;99.90
59303;DHT22;45074;52.764;6.896;2023-07-13T06:34:43;18.00;99.90
59303;DHT22;45074;52.764;6.896;2023-07-13T06:37:09;18.40;99.90
59303;DHT22;45074;52.764;6.896;2023-07-13T06:39:35;18.50;99.90
59303;DHT22;45074;52.764;6.896;2023-07-13T06:46:53;19.60;99.90
59303;DHT22;45074;52.764;6.896;2023-07-13T06:49:19;17.00;99.90
59303;DHT22;45074;52.764;6.896;2023-07-13T06:51:44;20.20;99.90
59303;DHT22;45074;52.764;6.896;2023-07-13T06:56:36;19.70;99.90
59303;DHT22;45074;52.764;6.896;2023-07-13T06:59:01;19.70;99.90
59303;DHT22;45074;52.764;6.896;2023-07-13T07:01:27;19.40;99.90
59303;DHT22;45074;52.764;6.896;2023-07-13T07:03:53;19.30;99.90
59303;DHT22;45074;52.764;6.896;2023-07-13T07:06:20;19.90;99.90
59303;DHT22;45074;52.764;6.896;2023-07-13T07:08:49;17.90;99.90
59303;DHT22;45074;52.764;6.896;2023-07-13T07:11:18;20.10;99.90
59303;DHT22;45074;52.764;6.896;2023-07-13T07:13:44;20.00;99.90
59303;DHT22;45074;52.764;6.896;2023-07-13T07:16:10;19.80;99.90
59303;DHT22;45074;52.764;6.896;2023-07-13T07:18:35;19.90;99.90
59303;DHT22;45074;52.764;6.896;2023-07-13T07:21:01;20.00;99.90
59303;DHT22;45074;52.764;6.896;2023-07-13T07:23:27;19.70;99.90
59303;DHT22;45074;52.764;6.896;2023-07-13T07:25:53;19.90;99.90
59303;DHT22;45074;52.764;6.896;2023-07-13T07:28:19;18.90;99.90
59303;DHT22;45074;52.764;6.896;2023-07-13T07:30:45;19.80;99.90
59303;DHT22;45074;52.764;6.896;2023-07-13T07:33:11;19.40;99.90
59303;DHT22;45074;52.764;6.896;2023-07-13T07:35:37;19.40;99.90
59303;DHT22;45074;52.764;6.896;2023-07-13T07:38:02;19.90;99.90
59303;DHT22;45074;52.764;6.896;2023-07-13T07:40:28;20.00;99.90
59303;DHT22;45074;52.764;6.896;2023-07-13T07:42:54;19.90;99.90
59303;DHT22;45074;52.764;6.896;2023-07-13T07:45:20;18.30;99.90
59303;DHT22;45074;52.764;6.896;2023-07-13T07:47:46;19.60;99.90
59303;DHT22;45074;52.764;6.896;2023-07-13T07:50:12;19.40;99.90
59303;DHT22;45074;52.764;6.896;2023-07-13T07:52:37;19.10;99.90
59303;DHT22;45074;52.764;6.896;2023-07-13T07:55:04;20.20;99.90
59303;DHT22;45074;52.764;6.896;2023-07-13T07:57:30;18.70;99.90
59303;DHT22;45074;52.764;6.896;2023-07-13T07:59:56;19.40;99.90
59303;DHT22;45074;52.764;6.896;2023-07-13T08:02:22;19.20;99.90
59303;DHT22;45074;52.764;6.896;2023-07-13T08:04:47;19.10;99.90
59303;DHT22;45074;52.764;6.896;2023-07-13T08:07:13;17.40;99.90
59303;DHT22;45074;52.764;6.896;2023-07-13T08:09:39;18.70;99.90
59303;DHT22;45074;52.764;6.896;2023-07-13T08:12:05;19.00;99.90
59303;DHT22;45074;52.764;6.896;2023-07-13T08:14:30;19.00;99.90
59303;DHT22;45074;52.764;6.896;2023-07-13T08:16:56;18.80;99.90
59303;DHT22;45074;52.764;6.896;2023-07-13T08:19:21;19.10;99.90
59303;DHT22;45074;52.764;6.896;2023-07-13T08:21:47;20.50;99.90
59303;DHT22;45074;52.764;6.896;2023-07-13T08:24:14;18.80;99.90
59303;DHT22;45074;52.764;6.896;2023-07-13T08:26:40;19.00;99.90
59303;DHT22;45074;52.764;6.896;2023-07-13T08:29:05;19.10;99.90
59303;DHT22;45074;52.764;6.896;2023-07-13T08:31:31;19.80;99.90
59303;DHT22;45074;52.764;6.896;2023-07-13T08:36:23;21.40;99.90
59303;DHT22;45074;52.764;6.896;2023-07-13T08:38:48;20.00;99.90
59303;DHT22;45074;52.764;6.896;2023-07-13T08:41:23;20.20;99.90
59303;DHT22;45074;52.764;6.896;2023-07-13T08:43:57;20.10;99.90
59303;DHT22;45074;52.764;6.896;2023-07-13T08:48:55;20.50;99.90
59303;DHT22;45074;52.764;6.896;2023-07-13T08:51:51;21.10;99.90
59303;DHT22;45074;52.764;6.896;2023-07-13T08:56:45;20.70;99.90
59303;DHT22;45074;52.764;6.896;2023-07-13T08:59:16;21.00;99.90
59303;DHT22;45074;52.764;6.896;2023-07-13T09:04:34;21.10;99.90
59303;DHT22;45074;52.764;6.896;2023-07-13T09:12:53;20.60;99.90
59303;DHT22;45074;52.764;6.896;2023-07-13T09:15:27;21.10;99.90
59303;DHT22;45074;52.764;6.896;2023-07-13T09:17:59;19.80;99.90
59303;DHT22;45074;52.764;6.896;2023-07-13T09:20:44;20.40;99.90
59303;DHT22;45074;52.764;6.896;2023-07-13T09:23:23;19.70;99.90
59303;DHT22;45074;52.764;6.896;2023-07-13T09:25:56;19.80;99.90
59303;DHT22;45074;52.764;6.896;2023-07-13T09:28:29;19.30;99.90
59303;DHT22;45074;52.764;6.896;2023-07-13T09:33:42;18.60;99.90
59303;DHT22;45074;52.764;6.896;2023-07-13T09:36:20;18.20;99.90
59303;DHT22;45074;52.764;6.896;2023-07-13T09:38:48;18.00;99.90
59303;DHT22;45074;52.764;6.896;2023-07-13T09:41:57;17.50;99.90
59303;DHT22;45074;52.764;6.896;2023-07-13T09:44:37;17.00;99.90
59303;DHT22;45074;52.764;6.896;2023-07-13T09:47:17;15.60;99.90
59303;DHT22;45074;52.764;6.896;2023-07-13T09:49:44;16.10;99.90
59303;DHT22;45074;52.764;6.896;2023-07-13T09:52:15;15.50;99.90
59303;DHT22;45074;52.764;6.896;2023-07-13T09:54:45;16.00;99.90
59303;DHT22;45074;52.764;6.896;2023-07-13T09:57:18;16.00;99.90
59303;DHT22;45074;52.764;6.896;2023-07-13T09:59:45;15.90;99.90
59303;DHT22;45074;52.764;6.896;2023-07-13T10:02:31;16.20;99.90
59303;DHT22;45074;52.764;6.896;2023-07-13T10:05:06;14.40;99.90
59303;DHT22;45074;52.764;6.896;2023-07-13T10:07:38;16.10;99.90
59303;DHT22;45074;52.764;6.896;2023-07-13T10:10:16;16.00;99.90
59303;DHT22;45074;52.764;6.896;2023-07-13T10:12:41;16.30;99.90
59303;DHT22;45074;52.764;6.896;2023-07-13T10:15:16;16.90;99.90
59303;DHT22;45074;52.764;6.896;2023-07-13T10:17:43;17.40;99.90
59303;DHT22;45074;52.764;6.896;2023-07-13T10:20:09;16.60;99.90
59303;DHT22;45074;52.764;6.896;2023-07-13T10:22:44;16.60;99.90
59303;DHT22;45074;52.764;6.896;2023-07-13T10:25:26;17.30;99.90
59303;DHT22;45074;52.764;6.896;2023-07-13T10:27:58;17.40;99.90
59303;DHT22;45074;52.764;6.896;2023-07-13T10:30:29;17.80;99.90
59303;DHT22;45074;52.764;6.896;2023-07-13T10:33:02;17.80;99.90
59303;DHT22;45074;52.764;6.896;2023-07-13T10:35:30;18.30;99.90
59303;DHT22;45074;52.764;6.896;2023-07-13T10:38:06;17.60;99.90
59303;DHT22;45074;52.764;6.896;2023-07-13T10:40:39;18.00;99.90
59303;DHT22;45074;52.764;6.896;2023-07-13T10:45:43;18.50;99.90
59303;DHT22;45074;52.764;6.896;2023-07-13T10:48:12;19.40;99.90
59303;DHT22;45074;52.764;6.896;2023-07-13T10:50:40;20.70;99.90
59303;DHT22;45074;52.764;6.896;2023-07-13T10:53:40;19.00;99.90
59303;DHT22;45074;52.764;6.896;2023-07-13T10:56:22;20.00;99.90
59303;DHT22;45074;52.764;6.896;2023-07-13T10:59:15;20.10;99.90
59303;DHT22;45074;52.764;6.896;2023-07-13T11:01:58;21.10;99.90
59303;DHT22;45074;52.764;6.896;2023-07-13T11:04:26;21.30;99.90
59303;DHT22;45074;52.764;6.896;2023-07-13T11:06:57;21.00;99.90
59303;DHT22;45074;52.764;6.896;2023-07-13T11:09:40;19.50;99.90
59303;DHT22;45074;52.764;6.896;2023-07-13T11:17:50;21.40;99.90
59303;DHT22;45074;52.764;6.896;2023-07-13T11:23:21;20.30;99.90
59303;DHT22;45074;52.764;6.896;2023-07-13T11:25:38;20.90;99.90
59303;DHT22;45074;52.764;6.896;2023-07-13T11:36:15;20.10;99.90
59303;DHT22;45074;52.764;6.896;2023-07-13T11:38:47;19.30;99.90
59303;DHT22;45074;52.764;6.896;2023-07-13T11:41:20;18.60;99.90
59303;DHT22;45074;52.764;6.896;2023-07-13T11:43:52;18.20;99.90
59303;DHT22;45074;52.764;6.896;2023-07-13T11:46:25;18.30;99.90
59303;DHT22;45074;52.764;6.896;2023-07-13T11:48:53;19.10;99.90
59303;DHT22;45074;52.764;6.896;2023-07-13T11:53:54;18.70;99.90
59303;DHT22;45074;52.764;6.896;2023-07-13T11:56:21;18.70;99.90
59303;DHT22;45074;52.764;6.896;2023-07-13T11:58:53;19.80;99.90
59303;DHT22;45074;52.764;6.896;2023-07-13T12:01:30;19.60;99.90
59303;DHT22;45074;52.764;6.896;2023-07-13T12:04:01;19.90;99.90
59303;DHT22;45074;52.764;6.896;2023-07-13T12:06:30;21.10;99.90
59303;DHT22;45074;52.764;6.896;2023-07-13T12:09:01;21.10;99.90
59303;DHT22;45074;52.764;6.896;2023-07-13T12:11:29;21.40;99.90
59303;DHT22;45074;52.764;6.896;2023-07-13T12:13:55;21.80;99.90
59303;DHT22;45074;52.764;6.896;2023-07-13T12:16:28;21.50;99.90
59303;DHT22;45074;52.764;6.896;2023-07-13T12:18:56;22.00;99.90
59303;DHT22;45074;52.764;6.896;2023-07-13T12:21:30;22.30;99.90
59303;DHT22;45074;52.764;6.896;2023-07-13T12:23:56;22.20;99.90
59303;DHT22;45074;52.764;6.896;2023-07-13T12:26:22;24.20;99.90
59303;DHT22;45074;52.764;6.896;2023-07-13T12:28:51;23.10;99.90
59303;DHT22;45074;52.764;6.896;2023-07-13T12:31:35;23.90;99.90
59303;DHT22;45074;52.764;6.896;2023-07-13T12:34:10;23.40;99.90
59303;DHT22;45074;52.764;6.896;2023-07-13T12:36:54;23.60;99.90
59303;DHT22;45074;52.764;6.896;2023-07-13T12:39:28;23.90;99.90
59303;DHT22;45074;52.764;6.896;2023-07-13T12:42:23;23.40;99.90
59303;DHT22;45074;52.764;6.896;2023-07-13T12:47:41;22.80;99.90
59303;DHT22;45074;52.764;6.896;2023-07-13T12:50:16;22.90;99.90
59303;DHT22;45074;52.764;6.896;2023-07-13T12:52:43;22.30;99.90
59303;DHT22;45074;52.764;6.896;2023-07-13T12:55:17;22.20;99.90
59303;DHT22;45074;52.764;6.896;2023-07-13T12:57:53;22.10;99.90
59303;DHT22;45074;52.764;6.896;2023-07-13T13:02:55;20.60;99.90
59303;DHT22;45074;52.764;6.896;2023-07-13T13:05:21;21.80;99.90
59303;DHT22;45074;52.764;6.896;2023-07-13T13:07:49;20.40;99.90
59303;DHT22;45074;52.764;6.896;2023-07-13T13:12:42;20.30;99.90
59303;DHT22;45074;52.764;6.896;2023-07-13T13:15:11;19.70;99.90
59303;DHT22;45074;52.764;6.896;2023-07-13T13:17:39;20.40;99.90
59303;DHT22;45074;52.764;6.896;2023-07-13T13:20:20;21.60;99.90
59303;DHT22;45074;52.764;6.896;2023-07-13T13:22:46;21.40;99.90
59303;DHT22;45074;52.764;6.896;2023-07-13T13:25:14;24.00;99.90
59303;DHT22;45074;52.764;6.896;2023-07-13T13:27:43;22.00;99.90
59303;DHT22;45074;52.764;6.896;2023-07-13T13:30:15;22.90;99.90
59303;DHT22;45074;52.764;6.896;2023-07-13T13:32:42;22.60;99.90
59303;DHT22;45074;52.764;6.896;2023-07-13T13:35:19;23.30;99.90
59303;DHT22;45074;52.764;6.896;2023-07-13T13:37:46;22.60;99.90
59303;DHT22;45074;52.764;6.896;2023-07-13T13:40:18;23.00;99.90
59303;DHT22;45074;52.764;6.896;2023-07-13T13:42:44;23.60;99.90
59303;DHT22;45074;52.764;6.896;2023-07-13T13:45:10;23.40;99.90
59303;DHT22;45074;52.764;6.896;2023-07-13T13:47:38;23.80;99.90
59303;DHT22;45074;52.764;6.896;2023-07-13T13:50:19;24.10;99.90
59303;DHT22;45074;52.764;6.896;2023-07-13T13:52:46;24.40;99.90
59303;DHT22;45074;52.764;6.896;2023-07-13T13:55:16;23.90;99.90
59303;DHT22;45074;52.764;6.896;2023-07-13T13:57:47;23.40;99.90
59303;DHT22;45074;52.764;6.896;2023-07-13T14:00:14;22.40;99.90
59303;DHT22;45074;52.764;6.896;2023-07-13T14:02:47;23.40;99.90
59303;DHT22;45074;52.764;6.896;2023-07-13T14:05:17;24.40;99.90
59303;DHT22;45074;52.764;6.896;2023-07-13T14:07:44;24.30;99.90
59303;DHT22;45074;52.764;6.896;2023-07-13T14:10:15;24.50;99.90
59303;DHT22;45074;52.764;6.896;2023-07-13T14:12:47;24.70;99.90
59303;DHT22;45074;52.764;6.896;2023-07-13T14:22:43;25.30;99.90
59303;DHT22;45074;52.764;6.896;2023-07-13T14:25:12;25.30;99.90
59303;DHT22;45074;52.764;6.896;2023-07-13T14:27:38;23.90;99.90
59303;DHT22;45074;52.764;6.896;2023-07-13T14:30:15;25.20;99.90
59303;DHT22;45074;52.764;6.896;2023-07-13T14:32:41;24.60;99.90
59303;DHT22;45074;52.764;6.896;2023-07-13T14:35:11;26.00;99.90
59303;DHT22;45074;52.764;6.896;2023-07-13T14:37:37;25.40;99.90
59303;DHT22;45074;52.764;6.896;2023-07-13T14:40:15;24.70;99.90
59303;DHT22;45074;52.764;6.896;2023-07-13T14:42:42;25.10;99.90
59303;DHT22;45074;52.764;6.896;2023-07-13T14:45:16;25.10;99.90
59303;DHT22;45074;52.764;6.896;2023-07-13T14:47:43;25.10;99.90
59303;DHT22;45074;52.764;6.896;2023-07-13T14:50:18;24.80;99.90
59303;DHT22;45074;52.764;6.896;2023-07-13T14:52:44;25.10;99.90
59303;DHT22;45074;52.764;6.896;2023-07-13T14:55:16;24.50;99.90
59303;DHT22;45074;52.764;6.896;2023-07-13T14:57:42;24.50;99.90
59303;DHT22;45074;52.764;6.896;2023-07-13T15:00:15;24.30;99.90
59303;DHT22;45074;52.764;6.896;2023-07-13T15:02:43;25.30;99.90
59303;DHT22;45074;52.764;6.896;2023-07-13T15:05:15;24.50;99.90
59303;DHT22;45074;52.764;6.896;2023-07-13T15:07:42;24.80;99.90
59303;DHT22;45074;52.764;6.896;2023-07-13T15:10:16;24.70;99.90
59303;DHT22;45074;52.764;6.896;2023-07-13T15:12:42;24.20;99.90
59303;DHT22;45074;52.764;6.896;2023-07-13T15:15:08;24.70;99.90
59303;DHT22;45074;52.764;6.896;2023-07-13T15:17:38;24.60;99.90
59303;DHT22;45074;52.764;6.896;2023-07-13T15:20:31;24.70;99.90
59303;DHT22;45074;52.764;6.896;2023-07-13T15:22:58;25.10;99.90
59303;DHT22;45074;52.764;6.896;2023-07-13T15:25:26;25.50;99.90
59303;DHT22;45074;52.764;6.896;2023-07-13T15:27:54;24.80;99.90
59303;DHT22;45074;52.764;6.896;2023-07-13T15:30:21;23.80;99.90
59303;DHT22;45074;52.764;6.896;2023-07-13T15:32:47;25.50;99.90
59303;DHT22;45074;52.764;6.896;2023-07-13T15:35:19;25.40;99.90
59303;DHT22;45074;52.764;6.896;2023-07-13T15:37:45;25.00;99.90
59303;DHT22;45074;52.764;6.896;2023-07-13T15:40:12;23.90;99.90
59303;DHT22;45074;52.764;6.896;2023-07-13T15:42:40;25.30;99.90
59303;DHT22;45074;52.764;6.896;2023-07-13T15:47:44;24.40;99.90
59303;DHT22;45074;52.764;6.896;2023-07-13T15:50:21;24.80;99.90
59303;DHT22;45074;52.764;6.896;2023-07-13T15:52:49;24.70;99.90
59303;DHT22;45074;52.764;6.896;2023-07-13T15:55:15;24.30;99.90
59303;DHT22;45074;52.764;6.896;2023-07-13T15:57:50;24.20;99.90
59303;DHT22;45074;52.764;6.896;2023-07-13T16:02:48;24.00;99.90
59303;DHT22;45074;52.764;6.896;2023-07-13T16:05:14;23.90;99.90
59303;DHT22;45074;52.764;6.896;2023-07-13T16:07:42;24.00;99.90
59303;DHT22;45074;52.764;6.896;2023-07-13T16:10:13;24.00;99.90
59303;DHT22;45074;52.764;6.896;2023-07-13T16:12:39;24.00;99.90
59303;DHT22;45074;52.764;6.896;2023-07-13T16:15:13;23.90;99.90
59303;DHT22;45074;52.764;6.896;2023-07-13T16:17:39;23.60;99.90
59303;DHT22;45074;52.764;6.896;2023-07-13T16:20:07;23.80;99.90
59303;DHT22;45074;52.764;6.896;2023-07-13T16:22:36;23.30;99.90
59303;DHT22;45074;52.764;6.896;2023-07-13T16:25:07;23.20;99.90
59303;DHT22;45074;52.764;6.896;2023-07-13T16:27:37;23.20;99.90
59303;DHT22;45074;52.764;6.896;2023-07-13T16:30:12;23.50;99.90
59303;DHT22;45074;52.764;6.896;2023-07-13T16:32:38;23.10;99.90
59303;DHT22;45074;52.764;6.896;2023-07-13T16:35:04;23.50;99.90
59303;DHT22;45074;52.764;6.896;2023-07-13T16:37:31;23.10;99.90
59303;DHT22;45074;52.764;6.896;2023-07-13T16:39:58;23.30;99.90
59303;DHT22;45074;52.764;6.896;2023-07-13T16:42:26;23.50;99.90
59303;DHT22;45074;52.764;6.896;2023-07-13T16:44:52;22.90;99.90
59303;DHT22;45074;52.764;6.896;2023-07-13T16:47:20;22.90;99.90
59303;DHT22;45074;52.764;6.896;2023-07-13T16:49:48;23.20;99.90
59303;DHT22;45074;52.764;6.896;2023-07-13T16:52:16;23.00;99.90
59303;DHT22;45074;52.764;6.896;2023-07-13T16:54:45;23.20;99.90
59303;DHT22;45074;52.764;6.896;2023-07-13T16:59:39;23.00;99.90
59303;DHT22;45074;52.764;6.896;2023-07-13T17:04:53;22.90;99.90
59303;DHT22;45074;52.764;6.896;2023-07-13T17:07:19;23.10;99.90
59303;DHT22;45074;52.764;6.896;2023-07-13T17:09:47;22.00;99.90